Time;durP1;ratioP1;P1;durP2;ratioP2;P2;SDS_P1;SDS_P2;PMS_P1;PMS_P2;Temp;Humidity;BMP_temperature;BMP_pressure;BME280_temperature;BME280_humidity;BME280_pressure;Samples;Min_cycle;Max_cycle;Signal;HPM_P1;HPM_P2
2022/06/07 00:00:41;;;;;;;7.53;5.20;;;12.20;99.90;;;;;;5046661;28;20064;-70
2022/06/07 00:03:07;;;;;;;11.05;5.53;;;12.20;99.90;;;;;;5047576;28;20048;-70
2022/06/07 00:05:33;;;;;;;10.07;5.32;;;12.20;99.90;;;;;;5047576;28;20052;-69
2022/06/07 00:07:59;;;;;;;16.42;5.28;;;12.50;99.90;;;;;;5047709;28;20052;-70
2022/06/07 00:10:25;;;;;;;10.68;6.05;;;12.20;99.90;;;;;;5047198;28;20049;-69
2022/06/07 00:12:51;;;;;;;9.93;5.47;;;12.20;99.90;;;;;;5045870;28;20037;-70
2022/06/07 00:15:17;;;;;;;9.75;5.80;;;12.20;99.90;;;;;;5047048;28;20597;-70
2022/06/07 00:17:44;;;;;;;10.07;4.85;;;12.20;99.90;;;;;;5045110;28;20207;-70
2022/06/07 00:20:10;;;;;;;10.30;6.18;;;12.20;99.90;;;;;;5045965;28;20486;-69
2022/06/07 00:22:36;;;;;;;9.75;5.30;;;12.20;99.90;;;;;;5047741;28;20041;-70
2022/06/07 00:25:03;;;;;;;11.80;5.53;;;12.20;99.90;;;;;;5045396;28;20658;-69
2022/06/07 00:27:29;;;;;;;7.57;5.53;;;12.20;99.90;;;;;;5046101;28;20549;-70
2022/06/07 00:29:55;;;;;;;8.43;5.93;;;12.30;99.90;;;;;;5046386;28;20365;-70
2022/06/07 00:32:22;;;;;;;15.50;6.07;;;12.20;99.90;;;;;;5045704;28;20481;-71
2022/06/07 00:34:48;;;;;;;12.90;6.22;;;12.70;99.90;;;;;;5045923;28;20072;-72
2022/06/07 00:37:13;;;;;;;8.75;5.57;;;12.20;99.90;;;;;;5047477;28;20045;-70
2022/06/07 00:39:39;;;;;;;11.98;5.85;;;12.20;99.90;;;;;;5046814;28;20041;-69
2022/06/07 00:42:06;;;;;;;12.85;6.50;;;12.60;99.90;;;;;;5047029;28;20120;-69
2022/06/07 00:44:41;;;;;;;13.90;5.90;;;12.20;99.90;;;;;;5046961;28;20056;-69
2022/06/07 00:47:21;;;;;;;9.68;6.10;;;12.20;99.90;;;;;;5047698;28;20045;-69
2022/06/07 00:49:46;;;;;;;11.18;6.63;;;12.20;99.90;;;;;;5053059;28;20053;-69
2022/06/07 00:52:13;;;;;;;11.15;6.10;;;12.20;99.90;;;;;;5061739;28;20055;-70
2022/06/07 00:54:38;;;;;;;12.88;5.70;;;12.20;99.90;;;;;;5047566;28;20052;-70
2022/06/07 00:57:05;;;;;;;12.90;6.28;;;12.20;99.90;;;;;;5045393;28;20124;-70
2022/06/07 00:59:31;;;;;;;9.30;5.22;;;12.30;99.90;;;;;;5046699;28;20040;-69
2022/06/07 01:01:57;;;;;;;13.43;5.57;;;12.30;99.90;;;;;;5046150;28;20045;-72
2022/06/07 01:04:23;;;;;;;10.60;6.43;;;12.30;99.90;;;;;;5046106;28;20448;-70
2022/06/07 01:12:21;;;;;;;12.20;6.20;;;12.30;99.90;;;;;;5045539;28;20052;-72
2022/06/07 01:14:47;;;;;;;9.52;5.78;;;12.30;99.90;;;;;;5046104;28;20049;-73
2022/06/07 01:17:13;;;;;;;8.38;6.28;;;12.20;99.90;;;;;;5045266;28;20102;-69
2022/06/07 01:19:39;;;;;;;7.40;5.97;;;12.30;99.90;;;;;;5045317;28;20052;-70
2022/06/07 01:22:04;;;;;;;9.77;5.97;;;12.30;99.90;;;;;;5045766;28;20037;-69
2022/06/07 01:24:30;;;;;;;8.32;5.85;;;12.30;99.90;;;;;;5046043;28;20447;-69
2022/06/07 01:26:56;;;;;;;6.85;5.72;;;12.30;99.90;;;;;;5045209;28;20053;-70
2022/06/07 01:29:22;;;;;;;10.93;6.32;;;12.30;99.90;;;;;;5046140;28;20063;-71
2022/06/07 01:31:48;;;;;;;7.82;5.88;;;12.30;99.90;;;;;;5044732;28;20049;-70
2022/06/07 01:34:14;;;;;;;9.20;6.00;;;12.30;99.90;;;;;;5046816;28;20071;-69
2022/06/07 01:36:39;;;;;;;8.57;6.38;;;12.30;99.90;;;;;;5045409;28;20051;-70
2022/06/07 01:41:55;;;;;;;12.73;6.72;;;12.30;99.90;;;;;;5044461;28;20130;-69
2022/06/07 01:44:35;;;;;;;11.00;6.90;;;12.30;99.90;;;;;;5044782;28;20449;-70
2022/06/07 01:47:02;;;;;;;12.60;6.13;;;12.30;99.90;;;;;;5045928;28;20178;-70
2022/06/07 01:49:27;;;;;;;8.95;6.03;;;12.30;99.90;;;;;;5045253;28;20040;-69
2022/06/07 01:51:54;;;;;;;8.45;6.10;;;12.30;99.90;;;;;;5044937;28;20051;-70
2022/06/07 01:54:21;;;;;;;7.95;6.35;;;12.30;99.90;;;;;;5044261;28;20252;-70
2022/06/07 01:56:47;;;;;;;10.05;6.30;;;12.40;99.90;;;;;;5045163;28;20041;-70
2022/06/07 01:59:13;;;;;;;10.68;7.20;;;12.30;99.90;;;;;;5045265;28;20045;-70
2022/06/07 02:01:39;;;;;;;13.75;6.32;;;12.40;99.90;;;;;;5044476;28;20074;-69
2022/06/07 02:04:05;;;;;;;12.80;6.35;;;12.40;99.90;;;;;;5045217;28;20099;-69
2022/06/07 02:06:32;;;;;;;14.60;6.68;;;12.40;99.90;;;;;;5044474;28;20486;-70
2022/06/07 02:08:58;;;;;;;9.75;6.20;;;12.40;99.90;;;;;;5044131;28;20056;-70
2022/06/07 02:11:26;;;;;;;16.00;6.78;;;12.40;99.90;;;;;;5044051;28;20080;-71
2022/06/07 02:13:52;;;;;;;10.50;6.13;;;12.40;99.90;;;;;;5044456;28;20056;-69
2022/06/07 02:16:19;;;;;;;10.57;6.70;;;12.30;99.90;;;;;;5044699;28;20417;-70
2022/06/07 02:18:46;;;;;;;10.02;6.22;;;13.40;99.90;;;;;;5043868;28;20056;-70
2022/06/07 02:21:12;;;;;;;7.72;6.35;;;12.40;99.90;;;;;;5044451;28;20057;-70
2022/06/07 02:23:38;;;;;;;9.65;6.47;;;12.40;99.90;;;;;;5045823;28;20045;-70
2022/06/07 02:26:15;;;;;;;13.90;6.63;;;12.30;99.90;;;;;;5044816;28;20481;-70
2022/06/07 02:28:44;;;;;;;8.77;6.65;;;12.30;99.90;;;;;;5044487;28;20053;-70
2022/06/07 02:31:10;;;;;;;8.23;6.10;;;12.30;99.90;;;;;;5043716;28;20513;-70
2022/06/07 02:33:39;;;;;;;13.32;7.70;;;12.30;99.90;;;;;;5044112;28;20444;-69
2022/06/07 02:36:06;;;;;;;11.60;7.35;;;12.20;99.90;;;;;;5043979;28;20053;-69
2022/06/07 02:38:33;;;;;;;12.88;8.02;;;12.20;99.90;;;;;;5043764;28;20259;-69
2022/06/07 02:41:01;;;;;;;13.60;6.95;;;12.10;99.90;;;;;;5045380;28;20140;-70
2022/06/07 02:43:27;;;;;;;12.65;7.30;;;12.00;99.90;;;;;;5045516;28;20049;-70
2022/06/07 02:45:53;;;;;;;18.73;7.88;;;12.00;99.90;;;;;;5045036;28;20103;-70
2022/06/07 02:48:18;;;;;;;14.55;8.25;;;12.00;99.90;;;;;;5044171;28;20049;-70
2022/06/07 02:50:44;;;;;;;12.90;8.05;;;12.00;99.90;;;;;;5044300;28;20103;-70
2022/06/07 02:53:10;;;;;;;12.25;7.57;;;11.90;99.90;;;;;;5043440;28;20579;-69
2022/06/07 02:55:36;;;;;;;13.25;8.35;;;11.90;99.90;;;;;;5044129;28;20084;-71
2022/06/07 02:58:01;;;;;;;11.27;8.05;;;11.90;99.90;;;;;;5045044;28;20524;-70
2022/06/07 03:00:27;;;;;;;12.48;9.13;;;12.10;99.90;;;;;;5043557;28;20099;-69
2022/06/07 03:02:53;;;;;;;12.73;8.57;;;11.90;99.90;;;;;;5043856;28;20106;-69
2022/06/07 03:05:18;;;;;;;16.60;8.25;;;11.80;99.90;;;;;;5045592;28;20053;-71
2022/06/07 03:07:44;;;;;;;10.70;7.47;;;11.70;99.90;;;;;;5055075;28;20048;-70
2022/06/07 03:10:11;;;;;;;14.52;8.07;;;11.80;99.90;;;;;;5059683;28;20439;-69
2022/06/07 03:12:38;;;;;;;19.20;8.00;;;11.70;99.90;;;;;;5049741;28;20239;-69
2022/06/07 03:15:05;;;;;;;16.40;7.53;;;11.70;99.90;;;;;;5046997;28;20053;-70
2022/06/07 03:17:31;;;;;;;13.25;7.68;;;11.70;99.90;;;;;;5047531;28;20053;-69
2022/06/07 03:19:56;;;;;;;14.13;7.97;;;11.60;99.90;;;;;;5065275;28;20054;-73
2022/06/07 03:22:23;;;;;;;11.13;8.32;;;11.60;99.90;;;;;;5067976;28;20048;-70
2022/06/07 03:24:49;;;;;;;8.60;7.05;;;11.70;99.90;;;;;;5068327;28;20493;-71
2022/06/07 03:27:15;;;;;;;12.98;7.93;;;11.50;99.90;;;;;;5067660;28;20051;-69
2022/06/07 03:29:41;;;;;;;13.65;6.90;;;11.60;99.90;;;;;;5066486;28;20036;-70
2022/06/07 03:32:08;;;;;;;14.75;7.85;;;11.50;99.90;;;;;;5068225;28;20106;-69
2022/06/07 03:34:34;;;;;;;10.15;6.85;;;11.50;99.90;;;;;;5049900;28;20052;-71
2022/06/07 03:37:01;;;;;;;8.55;6.88;;;11.50;99.90;;;;;;5066868;28;20044;-69
2022/06/07 03:39:27;;;;;;;10.13;7.60;;;11.50;99.90;;;;;;5067108;28;20132;-70
2022/06/07 03:41:54;;;;;;;12.10;6.70;;;11.40;99.90;;;;;;5066295;28;20048;-69
2022/06/07 03:44:19;;;;;;;11.55;6.63;;;11.50;99.90;;;;;;5067272;28;20044;-70
2022/06/07 03:46:46;;;;;;;10.50;6.65;;;11.40;99.90;;;;;;5068509;28;20056;-70
2022/06/07 03:49:12;;;;;;;12.02;7.10;;;11.30;99.90;;;;;;5067823;28;20036;-69
2022/06/07 03:51:38;;;;;;;6.38;5.72;;;11.30;99.90;;;;;;5068606;28;20063;-69
2022/06/07 03:54:05;;;;;;;8.50;6.10;;;11.30;99.90;;;;;;5066353;28;20048;-69
2022/06/07 03:56:31;;;;;;;6.78;6.15;;;11.30;99.90;;;;;;5066366;28;20128;-71
2022/06/07 03:58:57;;;;;;;9.35;5.07;;;11.30;99.90;;;;;;5066683;28;20455;-69
2022/06/07 04:01:26;;;;;;;6.10;4.53;;;11.30;99.90;;;;;;5068121;28;20131;-69
2022/06/07 04:03:53;;;;;;;7.72;5.57;;;11.30;99.90;;;;;;5067526;28;20052;-69
2022/06/07 04:06:20;;;;;;;9.30;5.18;;;11.30;99.90;;;;;;5067828;28;20547;-71
2022/06/07 04:08:46;;;;;;;9.63;5.43;;;11.40;99.90;;;;;;5067912;28;20044;-70
2022/06/07 04:11:14;;;;;;;8.43;5.88;;;11.30;99.90;;;;;;5067182;28;20897;-70
2022/06/07 04:13:40;;;;;;;9.43;6.03;;;11.30;99.90;;;;;;5066364;28;20044;-70
2022/06/07 04:16:12;;;;;;;12.90;5.85;;;11.20;99.90;;;;;;5066152;28;20186;-70
2022/06/07 04:18:39;;;;;;;10.10;5.38;;;11.30;99.90;;;;;;5065133;28;20068;-69
2022/06/07 04:21:05;;;;;;;10.00;5.28;;;11.30;99.90;;;;;;5066097;28;20048;-70
2022/06/07 04:23:32;;;;;;;10.63;5.95;;;11.20;99.90;;;;;;5067417;28;20115;-70
2022/06/07 04:26:04;;;;;;;19.25;7.88;;;11.20;99.90;;;;;;5066819;28;20060;-69
2022/06/07 04:28:30;;;;;;;8.50;6.32;;;11.20;99.90;;;;;;5066447;28;20044;-71
2022/06/07 04:30:56;;;;;;;16.70;6.38;;;11.20;99.90;;;;;;5058071;28;20056;-69
2022/06/07 04:33:21;;;;;;;13.48;6.57;;;11.30;99.90;;;;;;5053286;28;20084;-70
2022/06/07 04:35:47;;;;;;;13.10;6.53;;;11.30;99.90;;;;;;5062110;28;20067;-73
2022/06/07 04:38:13;;;;;;;13.50;6.43;;;11.30;99.90;;;;;;5045666;28;20041;-69
2022/06/07 04:40:42;;;;;;;10.38;6.03;;;11.60;99.90;;;;;;5046041;28;20084;-70
2022/06/07 04:43:09;;;;;;;16.23;6.40;;;11.40;99.90;;;;;;5045656;28;20179;-71
2022/06/07 04:45:37;;;;;;;14.43;6.47;;;11.40;99.90;;;;;;5046600;28;20068;-70
2022/06/07 04:48:03;;;;;;;10.55;6.03;;;11.70;99.90;;;;;;5029221;28;20466;-70
2022/06/07 04:50:29;;;;;;;11.88;6.00;;;11.40;99.90;;;;;;5045781;28;20049;-71
2022/06/07 04:52:55;;;;;;;14.23;5.40;;;11.40;99.90;;;;;;5046525;28;20044;-71
2022/06/07 04:55:20;;;;;;;12.07;5.50;;;11.50;99.90;;;;;;5045540;28;20048;-70
2022/06/07 04:57:46;;;;;;;13.63;5.15;;;11.50;99.90;;;;;;5045878;28;20211;-71
2022/06/07 05:00:17;;;;;;;13.60;5.47;;;11.50;99.90;;;;;;5045529;28;20103;-70
2022/06/07 05:02:43;;;;;;;15.10;5.90;;;11.50;99.90;;;;;;5047145;28;20460;-69
2022/06/07 05:05:10;;;;;;;9.88;4.47;;;11.50;99.90;;;;;;5046709;28;20053;-69
2022/06/07 05:07:37;;;;;;;14.50;4.97;;;11.50;99.90;;;;;;5044995;28;20445;-71
2022/06/07 05:10:08;;;;;;;15.20;4.72;;;11.50;99.90;;;;;;5045348;28;20049;-69
2022/06/07 05:12:34;;;;;;;12.75;4.20;;;11.50;99.90;;;;;;5045594;28;20052;-69
2022/06/07 05:15:00;;;;;;;9.65;4.82;;;11.60;99.90;;;;;;5044245;28;20048;-69
2022/06/07 05:17:26;;;;;;;12.48;5.25;;;11.60;99.90;;;;;;5046564;28;20136;-71
2022/06/07 05:19:51;;;;;;;11.32;5.90;;;12.10;99.90;;;;;;5045181;28;20444;-69
2022/06/07 05:22:17;;;;;;;11.70;5.28;;;11.70;99.90;;;;;;5046135;28;20052;-72
2022/06/07 05:24:43;;;;;;;12.25;6.72;;;11.70;99.90;;;;;;5044778;28;20394;-69
2022/06/07 05:27:15;;;;;;;12.73;6.15;;;11.70;99.90;;;;;;5049703;28;20055;-70
2022/06/07 05:29:52;;;;;;;8.90;5.10;;;11.70;99.90;;;;;;5048398;28;20117;-69
2022/06/07 05:32:18;;;;;;;19.75;5.95;;;11.60;99.90;;;;;;5050109;28;20124;-71
2022/06/07 05:34:44;;;;;;;8.55;5.10;;;11.60;99.90;;;;;;5052109;28;20232;-70
2022/06/07 05:37:15;;;;;;;7.75;5.30;;;11.60;99.90;;;;;;5054707;28;20041;-70
2022/06/07 05:39:41;;;;;;;16.70;5.60;;;11.60;99.90;;;;;;5057933;28;20051;-69
2022/06/07 05:42:11;;;;;;;12.05;4.82;;;11.50;99.90;;;;;;5050975;28;20365;-69
2022/06/07 05:44:37;;;;;;;7.68;5.40;;;11.50;99.90;;;;;;5061405;28;20040;-70
2022/06/07 05:47:04;;;;;;;10.18;5.28;;;11.50;99.90;;;;;;5053841;28;20079;-72
2022/06/07 05:49:30;;;;;;;6.20;4.15;;;11.40;99.90;;;;;;5051699;28;20041;-69
2022/06/07 05:51:56;;;;;;;8.10;5.07;;;11.40;99.90;;;;;;5054708;28;20465;-69
2022/06/07 05:54:22;;;;;;;11.25;4.20;;;11.40;99.90;;;;;;5054597;28;20041;-69
2022/06/07 05:56:47;;;;;;;10.23;4.22;;;11.40;99.90;;;;;;5056178;28;20044;-74
2022/06/07 05:59:13;;;;;;;4.88;3.30;;;11.40;99.90;;;;;;5055307;28;20036;-71
2022/06/07 06:01:39;;;;;;;8.00;3.95;;;11.40;99.90;;;;;;5053277;28;20045;-70
2022/06/07 06:04:07;;;;;;;8.23;3.80;;;11.40;99.90;;;;;;5055277;28;20427;-69
2022/06/07 06:06:33;;;;;;;6.22;2.88;;;11.30;99.90;;;;;;5054772;28;20032;-70
2022/06/07 06:11:43;;;;;;;5.22;2.83;;;11.30;99.90;;;;;;5052717;28;20045;-68
2022/06/07 06:14:09;;;;;;;4.60;2.78;;;11.30;99.90;;;;;;5054056;28;20507;-69
2022/06/07 06:16:37;;;;;;;6.30;3.17;;;11.40;99.90;;;;;;5055116;28;20612;-68
2022/06/07 06:19:03;;;;;;;9.55;2.63;;;11.40;99.90;;;;;;5053418;28;20052;-68
2022/06/07 06:21:33;;;;;;;4.03;2.28;;;11.40;99.90;;;;;;5055574;28;20087;-69
2022/06/07 06:24:00;;;;;;;3.22;1.50;;;11.50;99.90;;;;;;5049470;28;20643;-69
2022/06/07 06:26:29;;;;;;;6.90;2.05;;;11.50;99.90;;;;;;5052041;28;20037;-70
2022/06/07 06:28:55;;;;;;;5.35;1.80;;;11.40;99.90;;;;;;5051150;28;20518;-70
2022/06/07 06:31:22;;;;;;;5.03;1.60;;;11.50;99.90;;;;;;5049385;28;20084;-69
2022/06/07 06:33:50;;;;;;;7.13;2.08;;;11.60;99.90;;;;;;5061763;28;20052;-69
2022/06/07 06:36:19;;;;;;;4.88;1.35;;;11.60;99.90;;;;;;5065630;28;20091;-69
2022/06/07 06:38:45;;;;;;;7.90;1.88;;;11.60;99.90;;;;;;5065181;28;20032;-70
2022/06/07 06:41:14;;;;;;;5.63;1.42;;;11.60;99.90;;;;;;5066828;28;20079;-70
2022/06/07 06:43:39;;;;;;;5.07;1.27;;;11.70;99.90;;;;;;5069576;28;20055;-69
2022/06/07 06:46:10;;;;;;;7.72;1.75;;;11.70;99.90;;;;;;5061103;28;20057;-69
2022/06/07 06:48:36;;;;;;;3.63;1.45;;;11.80;99.90;;;;;;5048400;28;20425;-70
2022/06/07 06:51:04;;;;;;;3.65;1.35;;;11.80;99.90;;;;;;5047778;28;20053;-69
2022/06/07 06:53:31;;;;;;;2.80;1.30;;;11.90;99.90;;;;;;5049268;28;20064;-69
2022/06/07 06:55:57;;;;;;;2.95;1.52;;;12.00;99.90;;;;;;5049116;28;20048;-71
2022/06/07 06:58:25;;;;;;;5.90;1.25;;;12.00;99.90;;;;;;5049929;28;20045;-69
2022/06/07 07:01:00;;;;;;;6.38;2.15;;;12.00;99.90;;;;;;5033976;28;20060;-70
2022/06/07 07:03:26;;;;;;;9.13;2.67;;;12.10;99.90;;;;;;5049351;28;20037;-69
2022/06/07 07:05:52;;;;;;;4.90;1.77;;;12.10;99.90;;;;;;5050575;28;20052;-69
2022/06/07 07:08:18;;;;;;;9.20;2.25;;;12.10;99.90;;;;;;5050066;28;20057;-71
2022/06/07 07:10:44;;;;;;;11.40;2.53;;;12.10;99.90;;;;;;5048750;28;20374;-71
2022/06/07 07:13:09;;;;;;;7.75;2.60;;;12.20;99.90;;;;;;5046839;28;20051;-69
2022/06/07 07:15:35;;;;;;;7.00;2.30;;;12.30;99.90;;;;;;5058405;28;20036;-74
2022/06/07 07:18:01;;;;;;;11.20;2.53;;;12.20;99.90;;;;;;5059596;28;20539;-73
2022/06/07 07:20:27;;;;;;;11.00;2.67;;;12.30;99.90;;;;;;5062506;28;20052;-77
2022/06/07 07:22:54;;;;;;;9.15;2.60;;;12.30;99.90;;;;;;5069367;28;20140;-74
2022/06/07 07:25:20;;;;;;;9.10;2.40;;;12.40;99.90;;;;;;5069611;28;20107;-73
2022/06/07 07:27:46;;;;;;;5.57;2.35;;;12.40;99.90;;;;;;5045046;28;20441;-76
2022/06/07 07:30:12;;;;;;;10.68;2.25;;;12.50;99.90;;;;;;5068176;28;20097;-73
2022/06/07 07:32:37;;;;;;;8.57;2.17;;;12.50;99.90;;;;;;5069080;28;20448;-74
2022/06/07 07:35:03;;;;;;;11.02;2.63;;;12.60;99.90;;;;;;5064603;28;20056;-73
2022/06/07 07:37:29;;;;;;;12.05;2.58;;;12.60;99.90;;;;;;5050069;28;20047;-74
2022/06/07 07:39:55;;;;;;;7.20;2.08;;;12.60;99.90;;;;;;5047685;28;20048;-74
2022/06/07 07:42:20;;;;;;;9.45;1.92;;;12.60;99.90;;;;;;5048305;28;20124;-73
2022/06/07 07:44:47;;;;;;;11.25;2.70;;;12.60;99.90;;;;;;5047913;28;20157;-76
2022/06/07 07:47:13;;;;;;;8.88;2.30;;;12.60;99.90;;;;;;5059916;28;20081;-73
2022/06/07 07:49:39;;;;;;;8.00;2.03;;;12.70;99.90;;;;;;5051029;28;20080;-73
2022/06/07 07:52:05;;;;;;;9.48;1.63;;;12.50;99.90;;;;;;5042876;28;20540;-74
2022/06/07 07:54:30;;;;;;;4.68;1.30;;;12.40;99.90;;;;;;5057517;28;20528;-73
2022/06/07 07:56:56;;;;;;;9.48;2.17;;;12.40;99.90;;;;;;5048110;28;20115;-77
2022/06/07 07:59:24;;;;;;;7.72;1.50;;;12.40;99.90;;;;;;5047578;28;20106;-74
2022/06/07 08:01:50;;;;;;;8.60;2.35;;;12.40;99.90;;;;;;5029548;28;20671;-73
2022/06/07 08:04:16;;;;;;;6.85;1.75;;;12.50;99.90;;;;;;5047114;28;20041;-74
2022/06/07 08:06:42;;;;;;;9.07;2.63;;;12.60;99.90;;;;;;5047761;28;20045;-74
2022/06/07 08:09:09;;;;;;;6.18;1.65;;;12.50;99.90;;;;;;5047133;28;20045;-73
2022/06/07 08:11:37;;;;;;;9.23;2.53;;;13.00;99.90;;;;;;5047656;28;20056;-65
2022/06/07 08:14:05;;;;;;;10.20;1.70;;;12.50;99.90;;;;;;5046046;28;20045;-73
2022/06/07 08:16:31;;;;;;;7.85;2.00;;;12.60;99.90;;;;;;5046485;28;20057;-73
2022/06/07 08:18:57;;;;;;;4.60;1.70;;;12.70;99.90;;;;;;5048369;28;20052;-74
2022/06/07 08:21:26;;;;;;;6.63;1.42;;;12.90;99.90;;;;;;5049032;28;20394;-72
2022/06/07 08:23:54;;;;;;;3.92;1.77;;;12.90;99.90;;;;;;5046827;28;20064;-73
2022/06/07 08:26:21;;;;;;;11.60;2.65;;;13.00;99.90;;;;;;5047505;28;20512;-73
2022/06/07 08:28:48;;;;;;;8.45;1.92;;;13.20;99.90;;;;;;5046530;28;20084;-75
2022/06/07 08:31:16;;;;;;;9.98;1.77;;;13.20;99.90;;;;;;5047593;28;20041;-75
2022/06/07 08:39:12;;;;;;;8.25;1.77;;;13.40;99.90;;;;;;5045652;28;20056;-72
2022/06/07 08:41:43;;;;;;;7.38;1.52;;;13.50;99.90;;;;;;5046203;28;20084;-73
2022/06/07 08:44:16;;;;;;;6.95;1.60;;;13.40;99.90;;;;;;5046257;28;20448;-72
2022/06/07 08:46:42;;;;;;;6.75;1.13;;;13.40;99.90;;;;;;5046315;28;20125;-72
2022/06/07 08:49:11;;;;;;;6.10;1.52;;;13.40;99.90;;;;;;5046633;28;20136;-72
2022/06/07 08:51:49;;;;;;;8.60;1.83;;;13.40;99.90;;;;;;5047486;28;20512;-73
2022/06/07 08:54:20;;;;;;;5.40;1.25;;;13.50;99.90;;;;;;5047201;28;20111;-72
2022/06/07 08:56:47;;;;;;;5.95;1.33;;;13.90;99.90;;;;;;5046708;28;20053;-75
2022/06/07 08:59:17;;;;;;;6.65;1.58;;;13.40;99.90;;;;;;5047740;28;20088;-73
2022/06/07 09:02:07;;;;;;;6.18;1.50;;;13.50;99.90;;;;;;5047715;28;20418;-72
2022/06/07 09:04:36;;;;;;;4.22;1.20;;;13.40;99.90;;;;;;5047679;28;20063;-71
2022/06/07 09:07:22;;;;;;;6.93;1.20;;;13.50;99.90;;;;;;5045736;28;20116;-72
2022/06/07 09:12:41;;;;;;;3.05;1.15;;;13.20;99.90;;;;;;5045514;28;20084;-72
2022/06/07 09:15:19;;;;;;;4.72;1.85;;;13.20;99.90;;;;;;5047429;28;20052;-72
2022/06/07 09:17:51;;;;;;;5.45;1.63;;;13.00;99.90;;;;;;5046456;28;20074;-72
2022/06/07 09:20:22;;;;;;;7.32;1.60;;;13.10;99.90;;;;;;5047373;28;20049;-72
2022/06/07 09:23:00;;;;;;;5.35;1.35;;;13.10;99.90;;;;;;5045652;28;20044;-72
2022/06/07 09:25:50;;;;;;;3.78;1.17;;;13.10;99.90;;;;;;5046403;28;20095;-74
2022/06/07 09:28:26;;;;;;;7.05;1.50;;;13.00;99.90;;;;;;5046034;28;20280;-72
2022/06/07 09:31:11;;;;;;;5.72;1.42;;;13.00;99.90;;;;;;5047089;28;20107;-72
2022/06/07 09:33:48;;;;;;;3.58;1.17;;;13.00;99.90;;;;;;5028330;28;20048;-73
2022/06/07 09:36:21;;;;;;;8.05;1.42;;;13.00;99.90;;;;;;5046451;28;20044;-72
2022/06/07 09:38:51;;;;;;;6.10;1.35;;;13.00;99.90;;;;;;5029599;28;20052;-72
2022/06/07 09:41:39;;;;;;;6.30;1.67;;;13.00;99.90;;;;;;5045868;28;20053;-72
2022/06/07 09:44:29;;;;;;;7.90;2.25;;;13.10;99.90;;;;;;5045528;28;20049;-72
2022/06/07 09:47:03;;;;;;;6.28;1.38;;;13.10;99.90;;;;;;5047171;28;20041;-72
2022/06/07 09:49:33;;;;;;;6.97;1.98;;;13.20;99.90;;;;;;5046727;28;20041;-72
2022/06/07 09:52:12;;;;;;;7.88;1.60;;;13.70;99.90;;;;;;5046884;28;20049;-72
2022/06/07 09:54:41;;;;;;;7.28;1.70;;;13.40;99.90;;;;;;5046323;28;20056;-72
2022/06/07 09:58:04;;;;;;;7.07;2.08;;;13.60;99.90;;;;;;5045202;28;20055;-73
2022/06/07 10:00:32;;;;;;;8.50;2.17;;;13.70;99.90;;;;;;4988312;28;20553;-72
2022/06/07 10:03:04;;;;;;;6.72;1.83;;;13.90;99.90;;;;;;5003788;28;20521;-72
2022/06/07 10:05:42;;;;;;;9.80;2.42;;;13.80;99.90;;;;;;5024525;28;20405;-69
2022/06/07 10:08:34;;;;;;;13.05;2.63;;;13.90;99.90;;;;;;5057162;28;20464;-69
2022/06/07 10:11:19;;;;;;;7.73;1.77;;;13.70;99.90;;;;;;5046832;28;20111;-70
2022/06/07 10:14:22;;;;;;;13.20;2.08;;;13.70;99.90;;;;;;5052580;28;20323;-73
2022/06/07 10:17:12;;;;;;;8.93;2.28;;;13.80;99.90;;;;;;5063172;28;20052;-71
2022/06/07 10:20:00;;;;;;;12.27;2.75;;;13.90;99.90;;;;;;5056213;28;20136;-74
2022/06/07 10:22:52;;;;;;;5.47;1.35;;;14.00;99.90;;;;;;5064727;28;20049;-75
2022/06/07 10:25:30;;;;;;;7.82;1.98;;;14.10;99.90;;;;;;5066771;28;20120;-75
2022/06/07 10:28:27;;;;;;;5.38;1.58;;;14.00;99.90;;;;;;5052073;28;20513;-71
2022/06/07 10:31:15;;;;;;;5.47;1.77;;;13.90;99.90;;;;;;5044401;28;20060;-71
2022/06/07 10:34:01;;;;;;;4.78;1.58;;;13.80;99.90;;;;;;5045278;28;20048;-71
2022/06/07 10:36:47;;;;;;;5.07;1.52;;;13.70;99.90;;;;;;5044478;28;20053;-75
2022/06/07 10:39:49;;;;;;;8.35;1.77;;;13.70;99.90;;;;;;5045403;28;20528;-72
2022/06/07 10:42:41;;;;;;;8.52;2.25;;;13.60;99.90;;;;;;5046707;28;20597;-71
2022/06/07 10:45:33;;;;;;;8.10;1.60;;;13.60;99.90;;;;;;5044386;28;20402;-71
2022/06/07 10:48:52;;;;;;;6.90;1.83;;;13.60;99.90;;;;;;5044945;28;20512;-71
2022/06/07 10:54:12;;;;;;;4.53;1.30;;;13.50;99.90;;;;;;5061476;28;20526;-71
2022/06/07 10:56:45;;;;;;;9.82;1.77;;;13.60;99.90;;;;;;5050126;28;20103;-72
2022/06/07 10:59:22;;;;;;;6.57;2.25;;;13.60;99.90;;;;;;5045624;28;20033;-71
2022/06/07 11:01:55;;;;;;;3.13;1.60;;;13.70;99.90;;;;;;5046349;28;20053;-71
2022/06/07 11:10:28;;;;;;;4.28;1.33;;;14.10;99.90;;;;;;5046408;28;20053;-71
2022/06/07 11:13:00;;;;;;;7.07;1.38;;;14.30;99.90;;;;;;5061118;28;20507;-71
2022/06/07 11:15:44;;;;;;;4.40;1.38;;;14.70;99.90;;;;;;5045279;28;20051;-71
2022/06/07 11:18:16;;;;;;;8.77;1.58;;;14.40;99.90;;;;;;5061634;28;20124;-71
2022/06/07 11:21:00;;;;;;;3.25;1.13;;;14.40;99.90;;;;;;5060567;28;20053;-71
2022/06/07 11:23:31;;;;;;;3.90;1.40;;;14.50;99.90;;;;;;5061936;28;20151;-74
2022/06/07 11:26:14;;;;;;;5.10;1.52;;;14.50;99.90;;;;;;5044286;28;20052;-72
2022/06/07 11:28:39;;;;;;;3.88;0.93;;;14.60;99.90;;;;;;5063581;28;20051;-71
2022/06/07 11:31:23;;;;;;;3.75;1.27;;;14.70;99.90;;;;;;5049541;28;20361;-72
2022/06/07 11:33:52;;;;;;;7.05;1.45;;;14.80;99.90;;;;;;5064267;28;20079;-71
2022/06/07 11:36:20;;;;;;;8.48;1.35;;;14.80;99.90;;;;;;5049746;28;20102;-72
2022/06/07 11:38:55;;;;;;;4.47;1.52;;;14.80;99.90;;;;;;5064857;28;20400;-71
2022/06/07 11:41:40;;;;;;;5.47;1.63;;;14.80;99.90;;;;;;5064235;28;20488;-70
2022/06/07 11:44:10;;;;;;;4.43;0.85;;;14.70;99.90;;;;;;5064440;28;20890;-73
2022/06/07 11:46:35;;;;;;;8.00;1.77;;;14.60;99.90;;;;;;5064638;28;20099;-71
2022/06/07 11:49:19;;;;;;;3.70;1.20;;;14.60;99.90;;;;;;5048268;28;20458;-70
2022/06/07 11:52:04;;;;;;;8.05;1.20;;;14.60;99.90;;;;;;5065032;28;20383;-70
2022/06/07 11:54:48;;;;;;;6.90;1.10;;;14.50;99.90;;;;;;5048643;28;20047;-70
2022/06/07 11:57:29;;;;;;;6.85;1.50;;;14.50;99.90;;;;;;5064845;28;20171;-71
2022/06/07 12:00:21;;;;;;;2.30;0.60;;;14.80;99.90;;;;;;5064592;28;20056;-71
2022/06/07 12:02:56;;;;;;;;;;;14.50;99.90;;;;;;5043099;28;20095;-75
2022/06/07 12:05:43;;;;;;;4.40;1.23;;;15.00;99.90;;;;;;5031374;28;20011;-73
2022/06/07 12:08:44;;;;;;;2.35;0.75;;;14.60;99.90;;;;;;5047956;28;20049;-70
2022/06/07 12:11:20;;;;;;;3.85;0.90;;;14.70;99.90;;;;;;5048775;28;20417;-70
2022/06/07 12:14:00;;;;;;;2.58;0.88;;;14.70;99.90;;;;;;5064229;28;20576;-75
2022/06/07 12:16:34;;;;;;;4.80;0.80;;;14.80;99.90;;;;;;5063422;28;20057;-71
2022/06/07 12:19:02;;;;;;;2.03;1.00;;;14.80;99.90;;;;;;5048509;28;20110;-71
2022/06/07 12:21:33;;;;;;;5.15;1.17;;;14.80;99.90;;;;;;5063975;28;20052;-72
2022/06/07 12:24:10;;;;;;;3.63;1.25;;;14.80;99.90;;;;;;5046502;28;20055;-71
2022/06/07 12:26:35;;;;;;;9.23;1.75;;;14.90;99.90;;;;;;5048556;28;20527;-71
2022/06/07 12:29:07;;;;;;;4.03;1.23;;;14.90;99.90;;;;;;5063018;28;20052;-72
2022/06/07 12:31:40;;;;;;;4.22;1.15;;;15.10;99.90;;;;;;5063464;28;20132;-71
2022/06/07 12:34:19;;;;;;;2.00;1.17;;;15.20;99.90;;;;;;5047561;28;20052;-71
2022/06/07 12:36:50;;;;;;;2.92;1.25;;;15.30;99.90;;;;;;5047562;28;20037;-72
2022/06/07 12:39:17;;;;;;;2.10;0.82;;;15.30;99.90;;;;;;5047818;28;20037;-71
2022/06/07 12:41:58;;;;;;;5.18;1.30;;;15.30;99.90;;;;;;5046871;28;20057;-71
2022/06/07 12:44:31;;;;;;;5.15;1.50;;;15.50;99.90;;;;;;5046549;28;20606;-71
2022/06/07 12:46:59;;;;;;;7.45;1.73;;;15.90;99.90;;;;;;5062939;28;20045;-73
2022/06/07 12:49:31;;;;;;;6.63;1.80;;;16.30;99.90;;;;;;5048364;28;20056;-72
2022/06/07 12:52:02;;;;;;;3.15;1.17;;;16.80;99.90;;;;;;5047349;28;20045;-74
2022/06/07 12:54:29;;;;;;;4.75;1.20;;;17.20;99.90;;;;;;5048083;28;20041;-74
2022/06/07 12:56:59;;;;;;;4.53;1.23;;;17.40;99.90;;;;;;5063565;28;20400;-71
2022/06/07 12:59:28;;;;;;;4.78;1.35;;;17.50;99.90;;;;;;5047718;28;20048;-72
2022/06/07 13:01:53;;;;;;;3.22;0.93;;;17.40;99.90;;;;;;5047701;28;20044;-70
2022/06/07 13:04:36;;;;;;;6.43;1.58;;;17.30;99.90;;;;;;5046081;28;20052;-71
2022/06/07 13:07:25;;;;;;;3.60;1.38;;;17.10;99.90;;;;;;5047499;28;20049;-71
2022/06/07 13:10:00;;;;;;;4.93;1.17;;;16.80;99.90;;;;;;5062963;28;20048;-71
2022/06/07 13:12:29;;;;;;;4.18;1.23;;;16.70;99.90;;;;;;5046234;28;20277;-71
2022/06/07 13:14:56;;;;;;;3.08;1.00;;;16.60;99.90;;;;;;5047476;28;20073;-71
2022/06/07 13:17:35;;;;;;;3.45;0.70;;;16.50;99.90;;;;;;5062892;28;20183;-72
2022/06/07 13:20:02;;;;;;;1.95;0.90;;;16.40;99.90;;;;;;5046748;28;20417;-71
2022/06/07 13:22:32;;;;;;;5.05;1.45;;;16.30;99.90;;;;;;5029372;28;20092;-72
2022/06/07 13:25:17;;;;;;;9.80;1.75;;;16.20;99.90;;;;;;5047239;28;20051;-71
2022/06/07 13:27:52;;;;;;;9.95;1.48;;;16.50;99.90;;;;;;5047489;28;20045;-71